Time;durP1;ratioP1;P1;durP2;ratioP2;P2;SDS_P1;SDS_P2;PMS_P1;PMS_P2;Temp;Humidity;BMP_temperature;BMP_pressure;BME280_temperature;BME280_humidity;BME280_pressure;Samples;Min_cycle;Max_cycle;Signal;HPM_P1;HPM_P2
2023/07/07 00:01:25;;;;;;;2.40;0.88;;;11.60;99.90;;;;;;5071448;28;20062;-64
2023/07/07 00:03:50;;;;;;;1.58;0.85;;;11.50;99.90;;;;;;5052164;28;20040;-64
2023/07/07 00:06:16;;;;;;;3.28;0.68;;;11.50;99.90;;;;;;5070990;28;20438;-63
2023/07/07 00:08:42;;;;;;;1.10;0.80;;;11.40;99.90;;;;;;5070995;28;20049;-63
2023/07/07 00:11:08;;;;;;;2.28;0.70;;;11.40;99.90;;;;;;5070576;28;20143;-64
2023/07/07 00:13:37;;;;;;;1.60;0.77;;;11.40;99.90;;;;;;5070821;28;20531;-63
2023/07/07 00:16:03;;;;;;;1.33;0.50;;;11.30;99.90;;;;;;5072222;28;20041;-64
2023/07/07 00:18:29;;;;;;;2.65;1.13;;;11.30;99.90;;;;;;5053807;28;20361;-63
2023/07/07 00:20:59;;;;;;;1.13;0.50;;;11.30;99.90;;;;;;5071943;28;20040;-63
2023/07/07 00:23:26;;;;;;;3.08;0.98;;;11.30;99.90;;;;;;5054400;28;20305;-64
2023/07/07 00:26:09;;;;;;;3.70;1.25;;;11.30;99.90;;;;;;5070760;28;20146;-63
2023/07/07 00:28:35;;;;;;;2.38;0.75;;;11.30;99.90;;;;;;5070745;28;20044;-64
2023/07/07 00:31:01;;;;;;;4.18;0.93;;;11.30;99.90;;;;;;5071213;28;20063;-63
2023/07/07 00:33:27;;;;;;;2.65;1.05;;;11.20;99.90;;;;;;5053757;28;20385;-63
2023/07/07 00:35:53;;;;;;;1.70;0.85;;;11.10;99.90;;;;;;5071904;28;20036;-64
2023/07/07 00:38:20;;;;;;;3.08;1.50;;;11.10;99.90;;;;;;5070975;28;20048;-63
2023/07/07 00:40:46;;;;;;;1.52;0.77;;;11.10;99.90;;;;;;5070556;28;20036;-63
2023/07/07 00:43:13;;;;;;;5.93;1.10;;;11.20;99.90;;;;;;5070049;28;20436;-63
2023/07/07 00:45:39;;;;;;;1.33;0.85;;;11.10;99.90;;;;;;5069811;28;20056;-63
2023/07/07 00:48:10;;;;;;;1.55;0.70;;;11.20;99.90;;;;;;5070446;28;20044;-64
2023/07/07 00:50:40;;;;;;;1.83;1.00;;;11.20;99.90;;;;;;5071243;28;20044;-63
2023/07/07 00:53:06;;;;;;;1.83;0.85;;;11.20;99.90;;;;;;5069236;28;20140;-63
2023/07/07 00:55:42;;;;;;;1.50;0.85;;;11.20;99.90;;;;;;5070296;28;20559;-64
2023/07/07 00:58:11;;;;;;;4.50;0.60;;;11.20;99.90;;;;;;5070090;28;20036;-63
2023/07/07 01:00:39;;;;;;;3.30;0.55;;;11.20;99.90;;;;;;5068471;28;20404;-63
2023/07/07 01:03:13;;;;;;;1.50;0.80;;;11.20;99.90;;;;;;5069855;28;20114;-63
2023/07/07 01:05:41;;;;;;;1.75;0.77;;;11.20;99.90;;;;;;5069188;28;20044;-63
2023/07/07 01:08:07;;;;;;;3.78;1.13;;;11.10;99.90;;;;;;5069914;28;20082;-63
2023/07/07 01:10:33;;;;;;;1.38;0.80;;;11.10;99.90;;;;;;5053313;28;20072;-63
2023/07/07 01:13:00;;;;;;;2.95;0.98;;;11.10;99.90;;;;;;5070179;28;20071;-64
2023/07/07 01:15:34;;;;;;;2.45;1.33;;;11.20;99.90;;;;;;5071118;28;20044;-64
2023/07/07 01:18:20;;;;;;;2.13;0.77;;;11.30;99.90;;;;;;5070985;28;20040;-64
2023/07/07 01:21:01;;;;;;;1.77;0.88;;;11.30;99.90;;;;;;5068979;28;20036;-64
2023/07/07 01:23:50;;;;;;;2.90;1.00;;;11.40;99.90;;;;;;5069673;28;20160;-64
2023/07/07 01:26:53;;;;;;;2.63;1.33;;;11.50;99.90;;;;;;5070713;28;20045;-64
2023/07/07 01:29:51;;;;;;;3.78;1.08;;;11.50;99.90;;;;;;5070713;28;20052;-64
2023/07/07 01:32:21;;;;;;;1.92;0.98;;;11.60;99.90;;;;;;5069592;28;20436;-64
2023/07/07 01:34:47;;;;;;;1.70;0.85;;;11.60;99.90;;;;;;5069014;28;20040;-64
2023/07/07 01:37:14;;;;;;;2.50;0.98;;;11.60;99.90;;;;;;5069273;28;20032;-64
2023/07/07 01:39:42;;;;;;;2.75;1.20;;;11.60;99.90;;;;;;5069238;28;20044;-64
2023/07/07 01:42:24;;;;;;;1.95;1.08;;;11.70;99.90;;;;;;5069723;28;20088;-64
2023/07/07 01:44:58;;;;;;;1.70;1.00;;;11.70;99.90;;;;;;5070661;28;20219;-64
2023/07/07 01:47:32;;;;;;;1.88;1.05;;;11.70;99.90;;;;;;5070223;28;20041;-64
2023/07/07 01:50:14;;;;;;;3.30;1.33;;;11.80;99.90;;;;;;5069427;28;20044;-64
2023/07/07 01:52:47;;;;;;;2.08;1.05;;;11.80;99.90;;;;;;5068695;28;20059;-64
2023/07/07 01:55:16;;;;;;;3.03;1.38;;;11.80;99.90;;;;;;5068033;28;20381;-64
2023/07/07 01:57:47;;;;;;;1.13;0.77;;;11.80;99.90;;;;;;5052675;28;20426;-64
2023/07/07 02:00:15;;;;;;;3.60;0.93;;;11.90;99.90;;;;;;5068980;28;20037;-64
2023/07/07 02:02:41;;;;;;;2.80;1.30;;;11.80;99.90;;;;;;5068624;28;20458;-64
2023/07/07 02:05:08;;;;;;;2.40;1.20;;;11.80;99.90;;;;;;5070131;28;20123;-64
2023/07/07 02:07:33;;;;;;;3.70;1.27;;;11.70;99.90;;;;;;5052218;28;20461;-64
2023/07/07 02:09:59;;;;;;;2.72;1.35;;;11.60;99.90;;;;;;5068573;28;20047;-64
2023/07/07 02:12:25;;;;;;;3.78;1.65;;;11.60;99.90;;;;;;5069045;28;20505;-63
2023/07/07 02:14:51;;;;;;;3.70;1.58;;;11.50;99.90;;;;;;5068873;28;20133;-64
2023/07/07 02:17:18;;;;;;;1.83;0.80;;;11.50;99.90;;;;;;5069480;28;20041;-64
2023/07/07 02:19:44;;;;;;;3.20;1.35;;;11.50;99.90;;;;;;5068614;28;20037;-64
2023/07/07 02:22:10;;;;;;;5.90;1.73;;;11.40;99.90;;;;;;5070150;28;20071;-64
2023/07/07 02:24:36;;;;;;;2.58;1.10;;;11.40;99.90;;;;;;5068536;28;20039;-63
2023/07/07 02:27:03;;;;;;;4.95;2.05;;;11.40;99.90;;;;;;5068928;28;20496;-64
2023/07/07 02:29:29;;;;;;;3.63;1.52;;;11.40;99.90;;;;;;5069557;28;20041;-64
2023/07/07 02:31:55;;;;;;;3.88;1.75;;;11.40;99.90;;;;;;5068603;28;20039;-64
2023/07/07 02:34:21;;;;;;;3.42;1.38;;;11.40;99.90;;;;;;5051875;28;20095;-64
2023/07/07 02:36:46;;;;;;;4.68;1.58;;;11.50;99.90;;;;;;5069577;28;20045;-64
2023/07/07 02:39:14;;;;;;;3.67;1.88;;;11.50;99.90;;;;;;5069041;28;20036;-64
2023/07/07 02:41:39;;;;;;;2.60;1.55;;;11.50;99.90;;;;;;5068865;28;20045;-63
2023/07/07 02:44:05;;;;;;;2.72;1.27;;;11.50;99.90;;;;;;5051309;28;20409;-64
2023/07/07 02:46:31;;;;;;;3.83;1.85;;;11.50;99.90;;;;;;5069927;28;20128;-64
2023/07/07 02:48:57;;;;;;;3.75;2.10;;;11.50;99.90;;;;;;5068809;28;20090;-63
2023/07/07 02:51:23;;;;;;;4.45;1.77;;;11.50;99.90;;;;;;5067837;28;20424;-64
2023/07/07 02:53:48;;;;;;;4.68;2.03;;;11.50;99.90;;;;;;5068318;28;20055;-64
2023/07/07 02:56:14;;;;;;;4.63;1.85;;;11.50;99.90;;;;;;5069741;28;20075;-64
2023/07/07 02:58:40;;;;;;;4.22;1.55;;;11.50;99.90;;;;;;5067860;28;20136;-64
2023/07/07 03:01:15;;;;;;;5.18;2.53;;;11.50;99.90;;;;;;5068779;28;20481;-64
2023/07/07 03:03:45;;;;;;;4.05;1.67;;;11.50;99.90;;;;;;5069716;28;20110;-64
2023/07/07 03:06:15;;;;;;;3.75;2.30;;;11.50;99.90;;;;;;5068436;28;20041;-64
2023/07/07 03:08:41;;;;;;;7.53;1.88;;;11.50;99.90;;;;;;5072335;28;20040;-63
2023/07/07 03:11:10;;;;;;;4.07;1.85;;;11.50;99.90;;;;;;5072016;28;20047;-64
2023/07/07 03:13:37;;;;;;;4.90;2.30;;;11.50;99.90;;;;;;5071510;28;20174;-64
2023/07/07 03:16:09;;;;;;;5.15;2.05;;;11.50;99.90;;;;;;5073462;28;20047;-64
2023/07/07 03:18:35;;;;;;;6.28;2.03;;;11.50;99.90;;;;;;5071241;28;20049;-64
2023/07/07 03:21:01;;;;;;;3.70;2.10;;;11.50;99.90;;;;;;5073078;28;20111;-63
2023/07/07 03:23:27;;;;;;;3.90;2.10;;;11.50;99.90;;;;;;5072057;28;20047;-63
2023/07/07 03:25:53;;;;;;;4.22;2.15;;;11.50;99.90;;;;;;5071196;28;20040;-63
2023/07/07 03:28:19;;;;;;;5.30;2.67;;;11.50;99.90;;;;;;5071869;28;20040;-64
2023/07/07 03:30:45;;;;;;;6.75;2.33;;;11.60;99.90;;;;;;5073030;28;20063;-63
2023/07/07 03:33:13;;;;;;;6.32;2.55;;;11.60;99.90;;;;;;5072392;28;20098;-64
2023/07/07 03:35:39;;;;;;;6.72;2.75;;;11.60;99.90;;;;;;5071927;28;20347;-64
2023/07/07 03:38:05;;;;;;;3.50;2.60;;;11.60;99.90;;;;;;5071421;28;20037;-64
2023/07/07 03:40:31;;;;;;;7.05;3.22;;;11.60;99.90;;;;;;5072194;28;20048;-64
2023/07/07 03:42:57;;;;;;;6.03;2.10;;;11.60;99.90;;;;;;5072540;28;20036;-64
2023/07/07 03:45:23;;;;;;;8.70;2.92;;;11.60;99.90;;;;;;5055031;28;20590;-64
2023/07/07 03:47:50;;;;;;;5.95;2.88;;;11.70;99.90;;;;;;5070555;28;20050;-64
2023/07/07 03:50:16;;;;;;;5.97;2.85;;;11.70;99.90;;;;;;5071456;28;20397;-64
2023/07/07 03:52:41;;;;;;;7.80;3.25;;;11.70;99.90;;;;;;5071041;28;20055;-64
2023/07/07 03:55:08;;;;;;;11.30;3.92;;;11.80;99.90;;;;;;5070495;28;20078;-64
2023/07/07 03:57:33;;;;;;;6.68;2.90;;;11.80;99.90;;;;;;5072372;28;20036;-63
2023/07/07 03:59:59;;;;;;;9.77;3.90;;;11.80;99.90;;;;;;5071085;28;20105;-63
2023/07/07 04:02:25;;;;;;;7.47;3.42;;;11.80;99.90;;;;;;5070525;28;20426;-65
2023/07/07 04:04:51;;;;;;;5.07;3.00;;;11.90;99.90;;;;;;5071121;28;20047;-64
2023/07/07 04:07:17;;;;;;;6.50;3.25;;;11.90;99.90;;;;;;5071007;28;20044;-64
2023/07/07 04:09:43;;;;;;;8.63;4.20;;;12.00;99.90;;;;;;5069004;28;20072;-65
2023/07/07 04:12:09;;;;;;;8.02;3.75;;;12.00;99.90;;;;;;5049095;28;20119;-65
2023/07/07 04:14:36;;;;;;;8.60;4.07;;;12.10;99.90;;;;;;5071087;28;20079;-65
2023/07/07 04:17:02;;;;;;;8.55;3.95;;;12.20;99.90;;;;;;5071877;28;20066;-64
2023/07/07 04:19:29;;;;;;;8.65;5.13;;;12.30;99.90;;;;;;5070508;28;20040;-64
2023/07/07 04:21:55;;;;;;;6.20;3.17;;;12.30;99.90;;;;;;5070163;28;20127;-64
2023/07/07 04:24:21;;;;;;;6.93;3.63;;;12.50;99.90;;;;;;5071880;28;20108;-64
2023/07/07 04:26:47;;;;;;;6.68;3.42;;;12.60;99.90;;;;;;5071932;28;20059;-65
2023/07/07 04:29:13;;;;;;;6.38;3.15;;;12.70;99.90;;;;;;5071272;28;20537;-65
2023/07/07 04:31:44;;;;;;;5.78;2.85;;;12.70;99.90;;;;;;5071927;28;20116;-65
2023/07/07 04:34:14;;;;;;;7.65;3.55;;;12.80;99.90;;;;;;5053518;28;20049;-65
2023/07/07 04:36:40;;;;;;;9.45;3.60;;;12.90;99.90;;;;;;5071105;28;20094;-64
2023/07/07 04:39:07;;;;;;;8.63;3.90;;;12.90;99.90;;;;;;5070282;28;20072;-64
2023/07/07 04:41:33;;;;;;;6.95;2.90;;;13.00;99.90;;;;;;5071842;28;20400;-64
2023/07/07 04:44:00;;;;;;;8.70;3.75;;;13.10;99.90;;;;;;5069678;28;20420;-65
2023/07/07 04:46:27;;;;;;;8.00;4.47;;;13.20;99.90;;;;;;5053488;28;20040;-64
2023/07/07 04:48:53;;;;;;;11.95;4.18;;;13.30;99.90;;;;;;5070265;28;20048;-64
2023/07/07 04:51:19;;;;;;;8.40;4.13;;;13.30;99.90;;;;;;5070461;28;20047;-64
2023/07/07 04:53:46;;;;;;;9.93;4.07;;;13.40;99.90;;;;;;5069956;28;20080;-64
2023/07/07 04:56:15;;;;;;;4.60;2.83;;;13.50;99.90;;;;;;5070280;28;20048;-64
2023/07/07 04:58:42;;;;;;;6.20;2.92;;;13.60;99.90;;;;;;5069426;28;20047;-65
2023/07/07 05:01:09;;;;;;;9.02;4.80;;;13.70;99.90;;;;;;5071392;28;20074;-65
2023/07/07 05:03:36;;;;;;;8.45;4.07;;;13.70;99.90;;;;;;5069316;28;20089;-65
2023/07/07 05:06:03;;;;;;;13.07;4.35;;;13.90;99.90;;;;;;5071193;28;20124;-65
2023/07/07 05:08:36;;;;;;;11.25;4.63;;;14.00;99.90;;;;;;5053236;28;20037;-64
2023/07/07 05:11:03;;;;;;;9.63;4.78;;;14.10;99.90;;;;;;5069618;28;20059;-65
2023/07/07 05:13:31;;;;;;;9.82;3.85;;;14.20;99.90;;;;;;5069582;28;20185;-65
2023/07/07 05:16:03;;;;;;;7.07;3.92;;;14.30;99.90;;;;;;5069637;28;20123;-65
2023/07/07 05:18:29;;;;;;;11.20;4.65;;;14.40;99.90;;;;;;5069049;28;20045;-64
2023/07/07 05:20:55;;;;;;;7.65;3.75;;;14.50;99.90;;;;;;5069769;28;20448;-65
2023/07/07 05:23:21;;;;;;;7.55;4.40;;;14.60;99.90;;;;;;5070745;28;20040;-64
2023/07/07 05:25:47;;;;;;;11.55;4.10;;;14.70;99.90;;;;;;5070138;28;20036;-64
2023/07/07 05:28:13;;;;;;;8.48;4.88;;;14.80;99.90;;;;;;5070772;28;20040;-64
2023/07/07 05:30:39;;;;;;;10.35;4.20;;;14.90;99.90;;;;;;5068660;28;20133;-64
2023/07/07 05:33:05;;;;;;;5.57;3.40;;;15.00;99.90;;;;;;5068955;28;20396;-64
2023/07/07 05:35:31;;;;;;;9.35;4.43;;;15.10;99.90;;;;;;5052838;28;20048;-65
2023/07/07 05:38:00;;;;;;;8.23;4.72;;;15.20;99.90;;;;;;5069563;28;20059;-65
2023/07/07 05:40:26;;;;;;;7.63;3.75;;;15.30;99.90;;;;;;5068192;28;20036;-65
2023/07/07 05:42:53;;;;;;;6.60;3.70;;;15.40;99.90;;;;;;5069150;28;20123;-64
2023/07/07 05:45:19;;;;;;;6.25;3.72;;;15.60;99.90;;;;;;5069299;28;20109;-63
2023/07/07 05:47:45;;;;;;;7.22;4.15;;;15.70;99.90;;;;;;5068886;28;20040;-64
2023/07/07 05:50:10;;;;;;;7.55;3.75;;;15.80;99.90;;;;;;5069312;28;20419;-64
2023/07/07 05:52:36;;;;;;;6.65;3.45;;;15.90;99.90;;;;;;5051511;28;20052;-64
2023/07/07 05:55:03;;;;;;;6.15;4.00;;;16.00;99.90;;;;;;5069348;28;20048;-65
2023/07/07 05:57:29;;;;;;;7.00;3.17;;;16.10;99.90;;;;;;5069106;28;20516;-65
2023/07/07 05:59:55;;;;;;;9.02;4.07;;;16.10;99.90;;;;;;5069613;28;20432;-64
2023/07/07 06:02:21;;;;;;;5.75;3.53;;;16.30;99.90;;;;;;5069205;28;20048;-65
2023/07/07 06:04:47;;;;;;;5.68;3.05;;;16.40;99.90;;;;;;5070210;28;20082;-65
2023/07/07 06:07:13;;;;;;;7.72;3.55;;;16.50;99.90;;;;;;5069615;28;20124;-65
2023/07/07 06:09:39;;;;;;;4.63;3.22;;;16.60;99.90;;;;;;5070407;28;20064;-65
2023/07/07 06:12:05;;;;;;;6.53;3.15;;;16.70;99.90;;;;;;5070448;28;20324;-65
2023/07/07 06:14:31;;;;;;;9.18;3.40;;;16.90;99.90;;;;;;5068164;28;20474;-65
2023/07/07 06:16:57;;;;;;;6.15;3.03;;;17.00;99.90;;;;;;5070026;28;20040;-65
2023/07/07 06:19:23;;;;;;;5.80;3.20;;;17.10;99.90;;;;;;5069991;28;20051;-65
2023/07/07 06:21:49;;;;;;;5.10;3.08;;;17.20;99.90;;;;;;5068583;28;20040;-66
2023/07/07 06:24:14;;;;;;;8.82;3.17;;;17.40;99.90;;;;;;5070303;28;20071;-64
2023/07/07 06:26:40;;;;;;;5.63;3.55;;;17.50;99.90;;;;;;5068901;28;20055;-65
2023/07/07 06:29:06;;;;;;;6.22;2.55;;;17.50;99.90;;;;;;5069649;28;20040;-65
2023/07/07 06:31:32;;;;;;;7.95;2.85;;;17.70;99.90;;;;;;5070136;28;20506;-65
2023/07/07 06:33:58;;;;;;;5.15;2.30;;;17.80;99.90;;;;;;5068711;28;20036;-65
2023/07/07 06:36:23;;;;;;;4.30;2.47;;;18.00;99.90;;;;;;5068317;28;20076;-65
2023/07/07 06:38:49;;;;;;;5.53;2.47;;;18.20;99.90;;;;;;5066762;28;20386;-65
2023/07/07 06:41:20;;;;;;;5.03;2.80;;;18.50;99.90;;;;;;5052519;28;20051;-65
2023/07/07 06:43:45;;;;;;;4.50;2.35;;;18.70;99.90;;;;;;5073124;28;20734;-65
2023/07/07 06:46:14;;;;;;;5.00;2.53;;;18.90;99.90;;;;;;5072413;28;20082;-65
2023/07/07 06:48:40;;;;;;;6.03;2.73;;;19.10;99.90;;;;;;5072285;28;20055;-66
2023/07/07 06:51:06;;;;;;;5.63;2.50;;;19.20;99.90;;;;;;5072234;28;20416;-66
2023/07/07 06:53:32;;;;;;;5.20;2.28;;;19.40;99.90;;;;;;5072468;28;20052;-66
2023/07/07 06:55:58;;;;;;;6.70;2.53;;;19.60;99.90;;;;;;5072958;28;20037;-66
2023/07/07 06:58:24;;;;;;;3.72;2.10;;;19.80;99.90;;;;;;5072294;28;20037;-65
2023/07/07 07:00:49;;;;;;;3.20;1.95;;;20.10;99.90;;;;;;5073057;28;20033;-65
2023/07/07 07:03:15;;;;;;;3.58;2.20;;;20.20;99.90;;;;;;5072948;28;20109;-66
2023/07/07 07:05:41;;;;;;;5.32;1.98;;;20.40;99.90;;;;;;5072101;28;20041;-65
2023/07/07 07:08:07;;;;;;;4.47;2.22;;;20.60;99.90;;;;;;5055709;28;20040;-66
2023/07/07 07:10:33;;;;;;;7.80;2.42;;;20.70;99.90;;;;;;5071438;28;20131;-65
2023/07/07 07:12:59;;;;;;;3.13;1.88;;;20.80;99.90;;;;;;5072209;28;20128;-66
2023/07/07 07:15:25;;;;;;;4.15;2.20;;;21.00;99.90;;;;;;5055216;28;20489;-64
2023/07/07 07:17:51;;;;;;;2.28;1.55;;;21.10;99.90;;;;;;5072724;28;20032;-65
2023/07/07 07:20:17;;;;;;;2.63;1.75;;;21.30;99.90;;;;;;5072262;28;20043;-66
2023/07/07 07:22:44;;;;;;;3.95;1.60;;;21.40;99.90;;;;;;5072004;28;20045;-66
2023/07/07 07:25:10;;;;;;;3.97;1.80;;;21.50;99.90;;;;;;5066121;28;20140;-66
2023/07/07 07:27:37;;;;;;;3.88;1.80;;;21.60;99.90;;;;;;5054278;28;20124;-65
2023/07/07 07:30:05;;;;;;;3.17;1.55;;;21.70;99.90;;;;;;5072929;28;20482;-66
2023/07/07 07:32:31;;;;;;;3.10;1.65;;;21.80;99.90;;;;;;5070906;28;20056;-65
2023/07/07 07:34:57;;;;;;;3.53;1.67;;;21.90;99.90;;;;;;5069587;28;20047;-65
2023/07/07 07:37:22;;;;;;;4.35;1.52;;;22.00;99.90;;;;;;5071669;28;20044;-65
2023/07/07 07:39:48;;;;;;;2.33;1.17;;;22.20;99.90;;;;;;5072197;28;20751;-65
2023/07/07 07:42:14;;;;;;;4.30;1.40;;;22.30;99.90;;;;;;5072701;28;20040;-64
2023/07/07 07:44:40;;;;;;;2.83;1.17;;;22.50;99.90;;;;;;5072108;28;20040;-67
2023/07/07 07:47:06;;;;;;;3.22;1.30;;;22.60;99.90;;;;;;5072522;28;20127;-65
2023/07/07 07:49:32;;;;;;;3.08;1.38;;;22.60;99.90;;;;;;5054657;28;20178;-65
2023/07/07 07:51:58;;;;;;;2.60;1.30;;;22.80;99.90;;;;;;5053925;28;20143;-66
2023/07/07 07:54:24;;;;;;;1.77;1.02;;;22.90;99.90;;;;;;5071411;28;20492;-66
2023/07/07 07:56:51;;;;;;;2.70;1.30;;;23.00;99.90;;;;;;5054735;28;20040;-66
2023/07/07 07:59:17;;;;;;;2.10;1.25;;;23.20;99.90;;;;;;5070592;28;20040;-66
2023/07/07 08:01:44;;;;;;;2.03;1.00;;;23.30;99.90;;;;;;5071396;28;20043;-66
2023/07/07 08:04:10;;;;;;;1.42;0.98;;;23.40;99.90;;;;;;5071324;28;20130;-65
2023/07/07 08:06:36;;;;;;;2.53;0.98;;;23.50;99.90;;;;;;5070402;28;20041;-65
2023/07/07 08:09:03;;;;;;;2.97;1.00;;;23.60;99.90;;;;;;5054532;28;20054;-65
2023/07/07 08:11:41;;;;;;;2.85;1.02;;;23.70;99.90;;;;;;5071226;28;20127;-65
2023/07/07 08:14:12;;;;;;;3.63;1.08;;;23.80;99.90;;;;;;5070502;28;20040;-65
2023/07/07 08:16:39;;;;;;;3.83;1.13;;;23.90;99.90;;;;;;5072137;28;20036;-65
2023/07/07 08:19:05;;;;;;;2.03;0.90;;;24.00;99.30;;;;;;5070958;28;20029;-66
2023/07/07 08:21:31;;;;;;;4.25;1.33;;;24.00;98.60;;;;;;5070142;28;20113;-66
2023/07/07 08:23:57;;;;;;;4.22;1.13;;;24.10;99.50;;;;;;5070974;28;20045;-65
2023/07/07 08:26:23;;;;;;;2.20;1.00;;;24.20;98.60;;;;;;5054086;28;20076;-65
2023/07/07 08:28:49;;;;;;;2.35;0.80;;;24.40;98.90;;;;;;5070134;28;20125;-66
2023/07/07 08:31:15;;;;;;;2.40;0.65;;;24.50;97.90;;;;;;5068909;28;20426;-65
2023/07/07 08:33:44;;;;;;;1.35;0.73;;;24.50;97.60;;;;;;5058310;28;20064;-65
2023/07/07 08:36:10;;;;;;;2.00;0.90;;;24.60;96.50;;;;;;5066757;28;20044;-64
2023/07/07 08:38:36;;;;;;;1.30;0.70;;;24.80;97.20;;;;;;5071625;28;20037;-65
2023/07/07 08:41:02;;;;;;;2.17;0.82;;;24.80;96.10;;;;;;5053341;28;20127;-63
2023/07/07 08:43:30;;;;;;;1.42;0.65;;;24.90;96.40;;;;;;5069940;28;20040;-64
2023/07/07 08:46:33;;;;;;;2.80;0.98;;;25.00;95.90;;;;;;5071325;28;20117;-63
2023/07/07 08:49:07;;;;;;;2.30;1.10;;;25.10;92.50;;;;;;5069253;28;20043;-64
2023/07/07 08:52:01;;;;;;;1.58;0.60;;;25.20;94.30;;;;;;5066928;28;20071;-62
2023/07/07 08:54:41;;;;;;;1.33;0.75;;;25.30;86.50;;;;;;5050730;28;20048;-63
2023/07/07 08:57:11;;;;;;;2.78;0.82;;;25.30;91.80;;;;;;5050478;28;20049;-63
2023/07/07 08:59:37;;;;;;;2.63;1.15;;;25.50;93.60;;;;;;5060138;28;20044;-63
2023/07/07 09:02:12;;;;;;;2.35;0.75;;;25.60;92.90;;;;;;5070732;28;20040;-64
2023/07/07 09:04:43;;;;;;;2.80;0.90;;;25.60;92.40;;;;;;5069654;28;20048;-63
2023/07/07 09:07:27;;;;;;;0.95;0.70;;;25.60;91.20;;;;;;5052075;28;20049;-64
2023/07/07 09:10:17;;;;;;;1.08;0.60;;;25.60;90.60;;;;;;5050396;28;20040;-64
2023/07/07 09:12:52;;;;;;;1.73;0.98;;;25.70;88.90;;;;;;5064833;28;20040;-64
2023/07/07 09:15:22;;;;;;;1.50;0.60;;;25.80;90.60;;;;;;5069772;28;20048;-64
2023/07/07 09:17:54;;;;;;;1.63;0.47;;;25.90;90.90;;;;;;5070235;28;20044;-63
2023/07/07 09:20:23;;;;;;;2.05;0.77;;;26.10;89.10;;;;;;5069307;28;20459;-63
2023/07/07 09:23:24;;;;;;;1.63;0.60;;;26.20;85.10;;;;;;5070305;28;20044;-63
2023/07/07 09:26:13;;;;;;;0.82;0.45;;;26.20;83.90;;;;;;5047770;28;20049;-63
2023/07/07 09:28:45;;;;;;;3.72;0.95;;;26.40;86.10;;;;;;5069061;28;20056;-62
2023/07/07 09:31:25;;;;;;;3.55;0.98;;;26.50;82.00;;;;;;5068910;28;20472;-62
2023/07/07 09:33:53;;;;;;;1.42;0.43;;;26.40;78.50;;;;;;5069447;28;20668;-63
2023/07/07 09:36:59;;;;;;;1.13;0.85;;;26.40;79.40;;;;;;5069660;28;20075;-62
2023/07/07 09:39:44;;;;;;;3.22;1.08;;;26.40;74.80;;;;;;5031757;28;20428;-63
2023/07/07 09:42:18;;;;;;;2.28;0.60;;;26.40;76.70;;;;;;5031450;28;20584;-62
2023/07/07 09:45:08;;;;;;;1.20;0.68;;;26.50;76.50;;;;;;5030733;28;20522;-63
2023/07/07 09:47:48;;;;;;;0.90;0.50;;;26.60;77.30;;;;;;4934036;29;20055;-62
2023/07/07 09:50:29;;;;;;;1.90;0.60;;;26.70;75.20;;;;;;4950052;29;20066;-63
2023/07/07 09:53:15;;;;;;;2.13;0.63;;;26.90;75.50;;;;;;4933797;29;20102;-62
2023/07/07 09:55:43;;;;;;;1.52;0.82;;;26.90;76.60;;;;;;4948525;28;20039;-63
2023/07/07 09:58:38;;;;;;;1.75;0.50;;;27.00;76.80;;;;;;4953025;28;20101;-63
2023/07/07 10:01:09;;;;;;;2.28;0.77;;;27.10;75.20;;;;;;4939912;28;20039;-62
2023/07/07 10:03:39;;;;;;;1.73;0.80;;;27.10;75.10;;;;;;4966096;28;20047;-63
2023/07/07 10:06:22;;;;;;;2.13;0.57;;;27.20;74.50;;;;;;4932889;29;20066;-62
2023/07/07 10:08:48;;;;;;;2.15;0.55;;;27.20;75.00;;;;;;4949581;29;20058;-63
2023/07/07 10:11:22;;;;;;;1.52;0.73;;;27.30;75.10;;;;;;4969969;28;20046;-63
2023/07/07 10:13:52;;;;;;;0.75;0.50;;;27.50;75.70;;;;;;4987729;28;20706;-63
2023/07/07 10:16:33;;;;;;;2.78;0.77;;;27.60;76.00;;;;;;4971873;28;20056;-63
2023/07/07 10:19:09;;;;;;;3.38;0.50;;;27.80;75.30;;;;;;4971527;28;20050;-63
2023/07/07 10:21:35;;;;;;;3.08;0.82;;;27.90;74.30;;;;;;4971946;28;20042;-63
2023/07/07 10:24:01;;;;;;;1.35;0.63;;;28.00;75.10;;;;;;4996335;28;20045;-63
2023/07/07 10:26:27;;;;;;;1.33;0.47;;;28.20;75.10;;;;;;5068116;28;20076;-63
2023/07/07 10:28:56;;;;;;;1.60;0.70;;;28.20;71.40;;;;;;5070054;28;20115;-63
2023/07/07 10:31:24;;;;;;;1.20;0.50;;;28.10;72.80;;;;;;5051886;28;20102;-63
2023/07/07 10:33:57;;;;;;;1.48;0.63;;;28.20;72.90;;;;;;5069528;28;20041;-62
2023/07/07 10:36:31;;;;;;;1.58;0.55;;;28.20;70.60;;;;;;5052296;28;20377;-64
2023/07/07 10:38:58;;;;;;;0.77;0.40;;;28.10;71.00;;;;;;5068679;28;20128;-63
2023/07/07 10:41:25;;;;;;;3.28;0.73;;;28.10;72.50;;;;;;5068289;28;20388;-63
2023/07/07 10:43:52;;;;;;;1.75;0.60;;;28.20;72.70;;;;;;5069050;28;20051;-63
2023/07/07 10:46:18;;;;;;;1.80;0.60;;;28.30;72.30;;;;;;5069017;28;20052;-63
2023/07/07 10:48:46;;;;;;;1.80;0.75;;;28.30;71.00;;;;;;5050183;28;20047;-63
2023/07/07 10:51:36;;;;;;;1.00;0.52;;;28.40;70.50;;;;;;5067322;28;20103;-61
2023/07/07 10:54:29;;;;;;;1.50;0.80;;;28.40;69.70;;;;;;5066794;28;20077;-63
2023/07/07 10:57:23;;;;;;;2.00;0.73;;;28.30;69.60;;;;;;5067387;28;20040;-63
2023/07/07 11:00:19;;;;;;;2.65;0.47;;;28.10;69.00;;;;;;5067447;28;20068;-63
2023/07/07 11:02:48;;;;;;;1.35;0.70;;;28.20;69.40;;;;;;5067246;28;20499;-63
2023/07/07 11:05:14;;;;;;;;;;;28.20;69.90;;;;;;5062416;28;20068;-63
2023/07/07 11:07:45;;;;;;;1.60;0.70;;;28.40;68.00;;;;;;5047842;28;19917;-62
2023/07/07 11:10:22;;;;;;;1.85;0.93;;;28.30;67.40;;;;;;5048469;28;20091;-63
2023/07/07 11:13:04;;;;;;;1.08;0.60;;;28.40;67.90;;;;;;5048554;28;20041;-63
2023/07/07 11:16:05;;;;;;;3.30;0.77;;;28.30;67.70;;;;;;5048037;28;20039;-63
2023/07/07 11:18:53;;;;;;;1.52;0.90;;;28.30;67.10;;;;;;5038552;28;20039;-63
2023/07/07 11:21:33;;;;;;;1.90;0.60;;;28.30;68.40;;;;;;5068108;28;20037;-63
2023/07/07 11:24:17;;;;;;;1.05;0.50;;;28.60;65.60;;;;;;5068526;28;20122;-63
2023/07/07 11:27:02;;;;;;;2.78;0.77;;;28.80;66.40;;;;;;5069588;28;20051;-63
2023/07/07 11:30:05;;;;;;;1.70;0.55;;;28.90;67.00;;;;;;5070035;28;20052;-64
2023/07/07 11:32:53;;;;;;;3.67;0.80;;;28.90;66.10;;;;;;5071939;28;20058;-63
2023/07/07 11:35:57;;;;;;;3.47;0.95;;;29.10;65.70;;;;;;5073189;28;20036;-63
2023/07/07 11:38:46;;;;;;;5.32;1.02;;;29.20;65.40;;;;;;5033610;28;20041;-64
2023/07/07 11:41:23;;;;;;;1.67;0.90;;;29.20;68.30;;;;;;5027874;28;20060;-64
2023/07/07 11:44:26;;;;;;;2.83;0.68;;;29.30;67.60;;;;;;5033381;28;20068;-63
2023/07/07 11:47:16;;;;;;;0.90;0.40;;;29.40;62.60;;;;;;5033777;28;20136;-63
2023/07/07 11:50:06;;;;;;;3.00;0.90;;;29.50;64.60;;;;;;5041269;28;20075;-64
2023/07/07 11:52:42;;;;;;;1.10;0.40;;;29.40;65.70;;;;;;5033177;28;20744;-64
2023/07/07 11:55:45;;;;;;;2.10;0.85;;;29.30;64.10;;;;;;5050194;28;20049;-63
2023/07/07 11:58:36;;;;;;;1.42;0.80;;;29.00;64.70;;;;;;5049455;28;20033;-64
2023/07/07 12:01:18;;;;;;;1.13;0.60;;;28.80;64.00;;;;;;5015594;28;20041;-62
2023/07/07 12:04:06;;;;;;;1.48;0.55;;;28.80;64.40;;;;;;5032756;28;20140;-63
2023/07/07 12:06:45;;;;;;;3.67;0.82;;;28.70;63.80;;;;;;5049310;28;20045;-63
2023/07/07 12:09:32;;;;;;;1.73;0.70;;;28.70;62.20;;;;;;5016544;28;20094;-64
2023/07/07 12:12:26;;;;;;;3.55;0.63;;;28.50;60.50;;;;;;5032782;28;20041;-63
2023/07/07 12:14:55;;;;;;;1.85;0.93;;;28.50;61.90;;;;;;5048668;28;20500;-64
2023/07/07 12:17:29;;;;;;;1.15;0.57;;;28.40;62.30;;;;;;5071164;28;20362;-63
2023/07/07 12:20:03;;;;;;;0.88;0.52;;;28.40;61.70;;;;;;5071909;28;20485;-64
2023/07/07 12:22:35;;;;;;;5.97;0.90;;;28.30;62.10;;;;;;5072133;28;20040;-63
2023/07/07 12:25:24;;;;;;;2.28;0.82;;;28.20;62.50;;;;;;5070004;28;20078;-63
2023/07/07 12:27:54;;;;;;;1.73;0.70;;;28.20;62.50;;;;;;5071076;28;20044;-63
2023/07/07 12:30:33;;;;;;;1.38;0.70;;;28.20;63.00;;;;;;5071960;28;20477;-64
2023/07/07 12:32:59;;;;;;;1.55;0.60;;;28.20;63.60;;;;;;5070015;28;20037;-62
2023/07/07 12:35:40;;;;;;;1.85;0.63;;;28.20;63.40;;;;;;5070558;28;20048;-62
2023/07/07 12:38:15;;;;;;;3.22;0.63;;;28.30;62.20;;;;;;5070721;28;20390;-62
2023/07/07 12:40:45;;;;;;;1.48;0.60;;;28.20;61.90;;;;;;5052857;28;20488;-61
2023/07/07 12:43:35;;;;;;;3.00;0.80;;;28.00;60.80;;;;;;5053922;28;20044;-62
2023/07/07 12:46:03;;;;;;;1.65;0.50;;;27.80;60.50;;;;;;5053128;28;20032;-62
2023/07/07 12:48:30;;;;;;;0.98;0.60;;;27.70;60.90;;;;;;5071535;28;20082;-62
2023/07/07 12:51:04;;;;;;;1.83;1.05;;;27.60;61.60;;;;;;5071377;28;20045;-63
2023/07/07 12:53:35;;;;;;;1.58;0.77;;;27.50;61.30;;;;;;5071024;28;20049;-63
2023/07/07 12:56:07;;;;;;;1.35;0.70;;;27.50;61.50;;;;;;5065213;28;20385;-62
2023/07/07 12:58:36;;;;;;;1.50;0.90;;;27.50;60.70;;;;;;5033451;28;20041;-62
2023/07/07 13:01:15;;;;;;;1.65;0.73;;;27.40;60.90;;;;;;5070057;28;20037;-61
2023/07/07 13:04:05;;;;;;;2.33;0.77;;;27.40;60.40;;;;;;5066906;28;20065;-63
2023/07/07 13:06:31;;;;;;;1.10;0.57;;;27.40;59.00;;;;;;5049470;28;20044;-62
2023/07/07 13:09:12;;;;;;;2.30;0.75;;;27.30;60.40;;;;;;5050260;28;20037;-63